sensor_id;sensor_type;location;lat;lon;timestamp;temperature;humidity
36442;DHT22;64346;50.820;16.274;2023-02-08T00:01:14;-0.80;99.90
36442;DHT22;64346;50.820;16.274;2023-02-08T00:03:41;-0.90;99.90
36442;DHT22;64346;50.820;16.274;2023-02-08T00:06:12;-1.00;99.90
36442;DHT22;64346;50.820;16.274;2023-02-08T00:08:42;-1.10;99.90
36442;DHT22;64346;50.820;16.274;2023-02-08T00:11:10;-1.10;99.90
36442;DHT22;64346;50.820;16.274;2023-02-08T00:13:38;-1.00;99.90
36442;DHT22;64346;50.820;16.274;2023-02-08T00:16:09;-1.00;99.90
36442;DHT22;64346;50.820;16.274;2023-02-08T00:18:36;-1.10;99.90
36442;DHT22;64346;50.820;16.274;2023-02-08T00:21:11;-1.10;99.90
36442;DHT22;64346;50.820;16.274;2023-02-08T00:23:39;-1.10;99.90
36442;DHT22;64346;50.820;16.274;2023-02-08T00:26:07;-1.10;99.90
36442;DHT22;64346;50.820;16.274;2023-02-08T00:28:37;-1.10;99.90
36442;DHT22;64346;50.820;16.274;2023-02-08T00:31:07;-1.00;99.90
36442;DHT22;64346;50.820;16.274;2023-02-08T00:33:36;-1.10;99.90
36442;DHT22;64346;50.820;16.274;2023-02-08T00:36:06;-1.10;99.90
36442;DHT22;64346;50.820;16.274;2023-02-08T00:38:35;-1.20;99.90
36442;DHT22;64346;50.820;16.274;2023-02-08T00:41:03;-1.30;99.90
36442;DHT22;64346;50.820;16.274;2023-02-08T00:43:30;-1.20;99.90
36442;DHT22;64346;50.820;16.274;2023-02-08T00:46:03;-1.20;99.90
36442;DHT22;64346;50.820;16.274;2023-02-08T00:48:30;-1.20;99.90
36442;DHT22;64346;50.820;16.274;2023-02-08T00:51:08;-1.20;99.90
36442;DHT22;64346;50.820;16.274;2023-02-08T00:53:41;-1.20;99.90
36442;DHT22;64346;50.820;16.274;2023-02-08T00:56:14;-1.20;99.90
36442;DHT22;64346;50.820;16.274;2023-02-08T00:58:42;-1.10;99.90
36442;DHT22;64346;50.820;16.274;2023-02-08T01:01:12;-1.10;99.90
36442;DHT22;64346;50.820;16.274;2023-02-08T01:03:40;-1.00;99.90
36442;DHT22;64346;50.820;16.274;2023-02-08T01:06:12;-1.10;99.90
36442;DHT22;64346;50.820;16.274;2023-02-08T01:08:40;-1.20;99.90
36442;DHT22;64346;50.820;16.274;2023-02-08T01:11:10;-1.30;99.90
36442;DHT22;64346;50.820;16.274;2023-02-08T01:13:38;-1.30;99.90
36442;DHT22;64346;50.820;16.274;2023-02-08T01:16:22;-1.40;99.90
36442;DHT22;64346;50.820;16.274;2023-02-08T01:18:53;-1.60;99.90
36442;DHT22;64346;50.820;16.274;2023-02-08T01:21:28;-1.50;99.90
36442;DHT22;64346;50.820;16.274;2023-02-08T01:23:56;-1.60;99.90
36442;DHT22;64346;50.820;16.274;2023-02-08T01:26:24;-1.70;99.90
36442;DHT22;64346;50.820;16.274;2023-02-08T01:28:54;-1.90;99.90
36442;DHT22;64346;50.820;16.274;2023-02-08T01:31:34;-1.90;99.90
36442;DHT22;64346;50.820;16.274;2023-02-08T01:34:02;-1.90;99.90
36442;DHT22;64346;50.820;16.274;2023-02-08T01:36:31;-1.90;99.90
36442;DHT22;64346;50.820;16.274;2023-02-08T01:38:59;-1.90;99.90
36442;DHT22;64346;50.820;16.274;2023-02-08T01:41:31;-1.80;99.90
36442;DHT22;64346;50.820;16.274;2023-02-08T01:46:41;-1.60;99.90
36442;DHT22;64346;50.820;16.274;2023-02-08T01:51:49;-1.60;99.90
36442;DHT22;64346;50.820;16.274;2023-02-08T01:54:19;-1.70;99.90
36442;DHT22;64346;50.820;16.274;2023-02-08T01:56:48;-1.70;99.90
36442;DHT22;64346;50.820;16.274;2023-02-08T01:59:29;-1.70;99.90
36442;DHT22;64346;50.820;16.274;2023-02-08T02:02:02;-1.70;99.90
36442;DHT22;64346;50.820;16.274;2023-02-08T02:04:32;-1.70;99.90
36442;DHT22;64346;50.820;16.274;2023-02-08T02:07:04;-1.60;99.90
36442;DHT22;64346;50.820;16.274;2023-02-08T02:09:45;-1.60;99.90
36442;DHT22;64346;50.820;16.274;2023-02-08T02:12:16;-1.50;99.90
36442;DHT22;64346;50.820;16.274;2023-02-08T02:14:44;-1.60;99.90
36442;DHT22;64346;50.820;16.274;2023-02-08T02:17:15;-1.60;99.90
36442;DHT22;64346;50.820;16.274;2023-02-08T02:20:06;-1.60;99.90
36442;DHT22;64346;50.820;16.274;2023-02-08T02:39:42;-1.80;99.90
36442;DHT22;64346;50.820;16.274;2023-02-08T02:53:06;-1.70;99.90
36442;DHT22;64346;50.820;16.274;2023-02-08T02:55:41;-1.70;99.90
36442;DHT22;64346;50.820;16.274;2023-02-08T02:58:13;-1.70;99.90
36442;DHT22;64346;50.820;16.274;2023-02-08T03:00:41;-1.90;99.90
36442;DHT22;64346;50.820;16.274;2023-02-08T03:03:30;-2.00;99.90
36442;DHT22;64346;50.820;16.274;2023-02-08T03:06:23;-2.10;99.90
36442;DHT22;64346;50.820;16.274;2023-02-08T03:11:36;-2.10;99.90
36442;DHT22;64346;50.820;16.274;2023-02-08T03:22:33;-2.00;99.90
36442;DHT22;64346;50.820;16.274;2023-02-08T03:25:08;-1.90;99.90
36442;DHT22;64346;50.820;16.274;2023-02-08T03:28:00;-1.90;99.90
36442;DHT22;64346;50.820;16.274;2023-02-08T03:36:07;-2.00;99.90
36442;DHT22;64346;50.820;16.274;2023-02-08T03:38:42;-2.10;99.90
36442;DHT22;64346;50.820;16.274;2023-02-08T03:41:15;-2.10;99.90
36442;DHT22;64346;50.820;16.274;2023-02-08T03:43:50;-2.10;99.90
36442;DHT22;64346;50.820;16.274;2023-02-08T03:46:35;-2.10;99.90
36442;DHT22;64346;50.820;16.274;2023-02-08T03:49:08;-2.00;99.90
36442;DHT22;64346;50.820;16.274;2023-02-08T03:51:40;-1.90;99.90
36442;DHT22;64346;50.820;16.274;2023-02-08T03:54:17;-1.80;99.90
36442;DHT22;64346;50.820;16.274;2023-02-08T03:59:24;-1.80;99.90
36442;DHT22;64346;50.820;16.274;2023-02-08T04:01:57;-1.90;99.90
36442;DHT22;64346;50.820;16.274;2023-02-08T04:04:30;-2.00;99.90
36442;DHT22;64346;50.820;16.274;2023-02-08T04:06:58;-2.10;99.90
36442;DHT22;64346;50.820;16.274;2023-02-08T04:09:30;-2.10;99.90
36442;DHT22;64346;50.820;16.274;2023-02-08T04:12:00;-2.00;99.90
36442;DHT22;64346;50.820;16.274;2023-02-08T04:14:28;-2.10;99.90
36442;DHT22;64346;50.820;16.274;2023-02-08T04:16:55;-2.00;99.90
36442;DHT22;64346;50.820;16.274;2023-02-08T04:19:22;-2.20;99.90
36442;DHT22;64346;50.820;16.274;2023-02-08T04:21:49;-2.30;99.90
36442;DHT22;64346;50.820;16.274;2023-02-08T04:24:16;-2.30;99.90
36442;DHT22;64346;50.820;16.274;2023-02-08T04:26:43;-2.20;99.90
36442;DHT22;64346;50.820;16.274;2023-02-08T04:29:11;-2.20;99.90
36442;DHT22;64346;50.820;16.274;2023-02-08T04:31:38;-2.20;99.90
36442;DHT22;64346;50.820;16.274;2023-02-08T04:34:08;-2.30;99.90
36442;DHT22;64346;50.820;16.274;2023-02-08T04:36:38;-2.40;99.90
36442;DHT22;64346;50.820;16.274;2023-02-08T04:39:09;-2.40;99.90
36442;DHT22;64346;50.820;16.274;2023-02-08T04:41:36;-2.40;99.90
36442;DHT22;64346;50.820;16.274;2023-02-08T04:44:03;-2.30;99.90
36442;DHT22;64346;50.820;16.274;2023-02-08T04:46:30;-2.30;99.90
36442;DHT22;64346;50.820;16.274;2023-02-08T04:48:58;-2.30;99.90
36442;DHT22;64346;50.820;16.274;2023-02-08T04:51:25;-2.40;99.90
36442;DHT22;64346;50.820;16.274;2023-02-08T04:53:55;-2.50;99.90
36442;DHT22;64346;50.820;16.274;2023-02-08T04:56:24;-2.60;99.90
36442;DHT22;64346;50.820;16.274;2023-02-08T04:58:52;-2.60;99.90
36442;DHT22;64346;50.820;16.274;2023-02-08T05:01:22;-2.50;99.90
36442;DHT22;64346;50.820;16.274;2023-02-08T05:03:49;-2.40;99.90
36442;DHT22;64346;50.820;16.274;2023-02-08T05:06:16;-2.30;99.90
36442;DHT22;64346;50.820;16.274;2023-02-08T05:08:46;-2.30;99.90
36442;DHT22;64346;50.820;16.274;2023-02-08T05:11:19;-2.30;99.90
36442;DHT22;64346;50.820;16.274;2023-02-08T05:13:47;-2.40;99.90
36442;DHT22;64346;50.820;16.274;2023-02-08T05:16:15;-2.40;99.90
36442;DHT22;64346;50.820;16.274;2023-02-08T05:18:45;-2.40;99.90
36442;DHT22;64346;50.820;16.274;2023-02-08T05:21:15;-2.40;99.90
36442;DHT22;64346;50.820;16.274;2023-02-08T05:23:42;-2.50;99.90
36442;DHT22;64346;50.820;16.274;2023-02-08T05:26:14;-2.60;99.90
36442;DHT22;64346;50.820;16.274;2023-02-08T05:28:44;-2.50;99.90
36442;DHT22;64346;50.820;16.274;2023-02-08T05:31:16;-2.50;99.90
36442;DHT22;64346;50.820;16.274;2023-02-08T05:33:44;-2.50;99.90
36442;DHT22;64346;50.820;16.274;2023-02-08T05:36:13;-2.50;99.90
36442;DHT22;64346;50.820;16.274;2023-02-08T05:38:43;-2.40;99.90
36442;DHT22;64346;50.820;16.274;2023-02-08T05:41:12;-2.40;99.90
36442;DHT22;64346;50.820;16.274;2023-02-08T05:43:40;-2.30;99.90
36442;DHT22;64346;50.820;16.274;2023-02-08T05:46:07;-2.20;99.90
36442;DHT22;64346;50.820;16.274;2023-02-08T05:48:35;-2.10;99.90
36442;DHT22;64346;50.820;16.274;2023-02-08T05:51:02;-2.10;99.90
36442;DHT22;64346;50.820;16.274;2023-02-08T05:53:32;-2.10;99.90
36442;DHT22;64346;50.820;16.274;2023-02-08T05:55:59;-2.10;99.90
36442;DHT22;64346;50.820;16.274;2023-02-08T05:58:27;-2.30;99.90
36442;DHT22;64346;50.820;16.274;2023-02-08T06:00:56;-2.40;99.90
36442;DHT22;64346;50.820;16.274;2023-02-08T06:03:23;-2.40;99.90
36442;DHT22;64346;50.820;16.274;2023-02-08T06:05:50;-2.60;99.90
36442;DHT22;64346;50.820;16.274;2023-02-08T06:08:18;-2.60;99.90
36442;DHT22;64346;50.820;16.274;2023-02-08T06:10:47;-2.60;99.90
36442;DHT22;64346;50.820;16.274;2023-02-08T06:13:15;-2.60;99.90
36442;DHT22;64346;50.820;16.274;2023-02-08T06:15:42;-2.60;99.90
36442;DHT22;64346;50.820;16.274;2023-02-08T06:18:12;-2.70;99.90
36442;DHT22;64346;50.820;16.274;2023-02-08T06:20:39;-2.80;99.90
36442;DHT22;64346;50.820;16.274;2023-02-08T06:23:10;-2.90;99.90
36442;DHT22;64346;50.820;16.274;2023-02-08T06:25:39;-2.90;99.90
36442;DHT22;64346;50.820;16.274;2023-02-08T06:28:09;-2.90;99.90
36442;DHT22;64346;50.820;16.274;2023-02-08T06:30:37;-3.00;99.90
36442;DHT22;64346;50.820;16.274;2023-02-08T06:33:07;-2.90;99.90
36442;DHT22;64346;50.820;16.274;2023-02-08T06:35:34;-2.80;99.90
36442;DHT22;64346;50.820;16.274;2023-02-08T06:38:01;-2.40;99.90
36442;DHT22;64346;50.820;16.274;2023-02-08T06:40:29;-2.00;99.90
36442;DHT22;64346;50.820;16.274;2023-02-08T06:42:56;-1.50;99.90
36442;DHT22;64346;50.820;16.274;2023-02-08T06:45:23;-0.70;99.90
36442;DHT22;64346;50.820;16.274;2023-02-08T06:47:53;0.10;99.90
36442;DHT22;64346;50.820;16.274;2023-02-08T06:50:20;0.70;99.90
36442;DHT22;64346;50.820;16.274;2023-02-08T06:52:52;1.40;99.90
36442;DHT22;64346;50.820;16.274;2023-02-08T06:55:19;2.20;99.90
36442;DHT22;64346;50.820;16.274;2023-02-08T06:57:47;3.00;99.90
36442;DHT22;64346;50.820;16.274;2023-02-08T07:00:14;3.30;99.90
36442;DHT22;64346;50.820;16.274;2023-02-08T07:02:44;3.00;99.90
36442;DHT22;64346;50.820;16.274;2023-02-08T07:05:11;3.30;99.90
36442;DHT22;64346;50.820;16.274;2023-02-08T07:07:39;4.70;99.60
36442;DHT22;64346;50.820;16.274;2023-02-08T07:10:09;6.20;95.60
36442;DHT22;64346;50.820;16.274;2023-02-08T07:12:36;7.70;91.50
36442;DHT22;64346;50.820;16.274;2023-02-08T07:15:04;9.20;84.50
36442;DHT22;64346;50.820;16.274;2023-02-08T07:17:31;10.80;77.60
36442;DHT22;64346;50.820;16.274;2023-02-08T07:19:58;12.00;68.90
36442;DHT22;64346;50.820;16.274;2023-02-08T07:22:28;12.90;64.50
36442;DHT22;64346;50.820;16.274;2023-02-08T07:24:55;13.70;60.40
36442;DHT22;64346;50.820;16.274;2023-02-08T07:27:22;13.60;57.90
36442;DHT22;64346;50.820;16.274;2023-02-08T07:29:54;13.70;57.60
36442;DHT22;64346;50.820;16.274;2023-02-08T07:32:23;13.80;56.20
36442;DHT22;64346;50.820;16.274;2023-02-08T07:34:53;14.10;55.40
36442;DHT22;64346;50.820;16.274;2023-02-08T07:37:20;14.50;54.40
36442;DHT22;64346;50.820;16.274;2023-02-08T07:39:49;14.70;53.40
36442;DHT22;64346;50.820;16.274;2023-02-08T07:42:17;14.50;53.40
36442;DHT22;64346;50.820;16.274;2023-02-08T07:44:47;14.40;53.50
36442;DHT22;64346;50.820;16.274;2023-02-08T07:47:17;15.00;53.20
36442;DHT22;64346;50.820;16.274;2023-02-08T07:49:46;15.40;52.00
36442;DHT22;64346;50.820;16.274;2023-02-08T07:52:16;15.70;51.40
36442;DHT22;64346;50.820;16.274;2023-02-08T07:57:16;16.70;50.20
36442;DHT22;64346;50.820;16.274;2023-02-08T07:59:43;17.90;48.80
36442;DHT22;64346;50.820;16.274;2023-02-08T08:02:13;18.30;47.90
36442;DHT22;64346;50.820;16.274;2023-02-08T08:04:42;19.20;46.30
36442;DHT22;64346;50.820;16.274;2023-02-08T08:09:42;20.30;43.80
36442;DHT22;64346;50.820;16.274;2023-02-08T08:12:12;20.70;44.30
36442;DHT22;64346;50.820;16.274;2023-02-08T08:14:39;21.30;43.40
36442;DHT22;64346;50.820;16.274;2023-02-08T08:17:08;21.90;42.60
36442;DHT22;64346;50.820;16.274;2023-02-08T08:19:36;22.30;41.30
36442;DHT22;64346;50.820;16.274;2023-02-08T08:22:03;22.20;41.10
36442;DHT22;64346;50.820;16.274;2023-02-08T08:24:37;21.90;40.60
36442;DHT22;64346;50.820;16.274;2023-02-08T08:27:05;22.00;40.40
36442;DHT22;64346;50.820;16.274;2023-02-08T08:29:36;21.30;40.40
36442;DHT22;64346;50.820;16.274;2023-02-08T08:32:05;19.90;41.90
36442;DHT22;64346;50.820;16.274;2023-02-08T08:34:34;19.60;42.20
36442;DHT22;64346;50.820;16.274;2023-02-08T08:37:02;20.30;41.90
36442;DHT22;64346;50.820;16.274;2023-02-08T08:39:31;21.50;40.60
36442;DHT22;64346;50.820;16.274;2023-02-08T08:42:02;22.40;39.70
36442;DHT22;64346;50.820;16.274;2023-02-08T08:44:30;22.90;39.10
36442;DHT22;64346;50.820;16.274;2023-02-08T08:47:02;22.30;39.10
36442;DHT22;64346;50.820;16.274;2023-02-08T08:49:29;20.20;40.10
36442;DHT22;64346;50.820;16.274;2023-02-08T08:51:57;19.00;41.90
36442;DHT22;64346;50.820;16.274;2023-02-08T08:54:26;18.60;42.40
36442;DHT22;64346;50.820;16.274;2023-02-08T08:56:56;19.30;41.80
36442;DHT22;64346;50.820;16.274;2023-02-08T08:59:23;19.80;41.50
36442;DHT22;64346;50.820;16.274;2023-02-08T09:01:56;21.30;40.90
36442;DHT22;64346;50.820;16.274;2023-02-08T09:04:23;23.00;39.20
36442;DHT22;64346;50.820;16.274;2023-02-08T09:06:52;24.60;38.00
36442;DHT22;64346;50.820;16.274;2023-02-08T09:09:21;25.10;37.50
36442;DHT22;64346;50.820;16.274;2023-02-08T09:11:51;23.70;37.10
36442;DHT22;64346;50.820;16.274;2023-02-08T09:14:18;21.50;39.60
36442;DHT22;64346;50.820;16.274;2023-02-08T09:16:45;19.00;40.70
36442;DHT22;64346;50.820;16.274;2023-02-08T09:19:13;16.20;42.70
36442;DHT22;64346;50.820;16.274;2023-02-08T09:21:41;13.70;45.50
36442;DHT22;64346;50.820;16.274;2023-02-08T09:24:11;11.40;48.40
36442;DHT22;64346;50.820;16.274;2023-02-08T09:26:41;9.80;51.40
36442;DHT22;64346;50.820;16.274;2023-02-08T09:29:08;8.80;53.70
36442;DHT22;64346;50.820;16.274;2023-02-08T09:31:36;8.30;54.60
36442;DHT22;64346;50.820;16.274;2023-02-08T09:34:06;7.90;55.80
36442;DHT22;64346;50.820;16.274;2023-02-08T09:36:38;7.70;56.70
36442;DHT22;64346;50.820;16.274;2023-02-08T09:39:13;7.40;57.60
36442;DHT22;64346;50.820;16.274;2023-02-08T09:50:40;5.20;62.60
36442;DHT22;64346;50.820;16.274;2023-02-08T09:53:14;5.00;63.70
36442;DHT22;64346;50.820;16.274;2023-02-08T09:55:47;4.30;65.10
36442;DHT22;64346;50.820;16.274;2023-02-08T09:58:21;4.10;67.20
36442;DHT22;64346;50.820;16.274;2023-02-08T10:00:50;3.90;67.30
36442;DHT22;64346;50.820;16.274;2023-02-08T10:03:39;3.40;68.80
36442;DHT22;64346;50.820;16.274;2023-02-08T10:06:13;3.10;70.40
36442;DHT22;64346;50.820;16.274;2023-02-08T10:08:45;3.00;70.80
36442;DHT22;64346;50.820;16.274;2023-02-08T10:16:54;2.80;73.60
36442;DHT22;64346;50.820;16.274;2023-02-08T10:22:17;2.70;75.40
36442;DHT22;64346;50.820;16.274;2023-02-08T10:27:38;2.50;77.60
36442;DHT22;64346;50.820;16.274;2023-02-08T10:33:20;2.10;81.10
36442;DHT22;64346;50.820;16.274;2023-02-08T10:35:49;1.80;84.30
36442;DHT22;64346;50.820;16.274;2023-02-08T10:40:57;1.90;87.30
36442;DHT22;64346;50.820;16.274;2023-02-08T10:51:48;2.10;90.60
36442;DHT22;64346;50.820;16.274;2023-02-08T10:54:15;2.20;90.50
36442;DHT22;64346;50.820;16.274;2023-02-08T10:56:53;2.40;90.50
36442;DHT22;64346;50.820;16.274;2023-02-08T10:59:45;2.60;90.60
36442;DHT22;64346;50.820;16.274;2023-02-08T11:05:01;3.10;89.30
36442;DHT22;64346;50.820;16.274;2023-02-08T11:07:30;3.10;88.90
36442;DHT22;64346;50.820;16.274;2023-02-08T11:10:20;3.30;88.60
36442;DHT22;64346;50.820;16.274;2023-02-08T11:17:58;3.20;90.10
36442;DHT22;64346;50.820;16.274;2023-02-08T11:20:37;3.30;89.40
36442;DHT22;64346;50.820;16.274;2023-02-08T11:23:19;3.50;89.10
36442;DHT22;64346;50.820;16.274;2023-02-08T11:25:50;3.50;87.50
36442;DHT22;64346;50.820;16.274;2023-02-08T11:31:00;3.20;87.90
36442;DHT22;64346;50.820;16.274;2023-02-08T11:33:30;3.30;87.30
36442;DHT22;64346;50.820;16.274;2023-02-08T11:36:01;3.40;87.00
36442;DHT22;64346;50.820;16.274;2023-02-08T11:38:31;3.40;86.40
36442;DHT22;64346;50.820;16.274;2023-02-08T11:41:01;3.10;87.60
36442;DHT22;64346;50.820;16.274;2023-02-08T11:43:33;2.70;88.50
36442;DHT22;64346;50.820;16.274;2023-02-08T11:46:04;2.60;89.90
36442;DHT22;64346;50.820;16.274;2023-02-08T11:48:42;2.20;90.70
36442;DHT22;64346;50.820;16.274;2023-02-08T11:51:14;2.20;90.90
36442;DHT22;64346;50.820;16.274;2023-02-08T11:53:52;2.50;90.50
36442;DHT22;64346;50.820;16.274;2023-02-08T11:56:21;2.40;90.30
36442;DHT22;64346;50.820;16.274;2023-02-08T11:59:03;2.50;89.60
36442;DHT22;64346;50.820;16.274;2023-02-08T12:01:34;2.10;90.20
36442;DHT22;64346;50.820;16.274;2023-02-08T12:04:08;2.10;91.80
36442;DHT22;64346;50.820;16.274;2023-02-08T12:15:18;2.20;90.70
36442;DHT22;64346;50.820;16.274;2023-02-08T12:56:17;0.90;91.60
36442;DHT22;64346;50.820;16.274;2023-02-08T12:58:51;1.00;91.70
36442;DHT22;64346;50.820;16.274;2023-02-08T13:04:18;1.20;91.80
36442;DHT22;64346;50.820;16.274;2023-02-08T13:06:50;1.40;91.80
36442;DHT22;64346;50.820;16.274;2023-02-08T13:12:11;1.40;91.60
36442;DHT22;64346;50.820;16.274;2023-02-08T13:22:34;1.60;91.10
36442;DHT22;64346;50.820;16.274;2023-02-08T13:25:06;1.60;90.90
36442;DHT22;64346;50.820;16.274;2023-02-08T13:27:37;1.60;91.10
36442;DHT22;64346;50.820;16.274;2023-02-08T13:30:05;1.60;91.50
36442;DHT22;64346;50.820;16.274;2023-02-08T13:32:40;1.60;91.50
36442;DHT22;64346;50.820;16.274;2023-02-08T13:35:20;1.60;91.40
36442;DHT22;64346;50.820;16.274;2023-02-08T13:37:52;1.60;91.40
36442;DHT22;64346;50.820;16.274;2023-02-08T13:40:25;1.60;91.40
36442;DHT22;64346;50.820;16.274;2023-02-08T13:45:36;1.40;91.80
36442;DHT22;64346;50.820;16.274;2023-02-08T13:48:13;1.50;91.90
36442;DHT22;64346;50.820;16.274;2023-02-08T13:53:11;1.60;92.20
36442;DHT22;64346;50.820;16.274;2023-02-08T13:56:11;1.60;91.90
36442;DHT22;64346;50.820;16.274;2023-02-08T14:06:30;1.50;92.60
36442;DHT22;64346;50.820;16.274;2023-02-08T14:09:20;1.60;92.50
36442;DHT22;64346;50.820;16.274;2023-02-08T14:12:01;1.60;92.50
36442;DHT22;64346;50.820;16.274;2023-02-08T14:14:37;1.60;92.20
36442;DHT22;64346;50.820;16.274;2023-02-08T14:19:41;1.60;92.70
36442;DHT22;64346;50.820;16.274;2023-02-08T14:27:19;1.60;92.60
36442;DHT22;64346;50.820;16.274;2023-02-08T14:30:01;1.60;92.70
36442;DHT22;64346;50.820;16.274;2023-02-08T14:32:33;1.60;92.50
36442;DHT22;64346;50.820;16.274;2023-02-08T14:37:42;1.60;93.00
36442;DHT22;64346;50.820;16.274;2023-02-08T14:45:36;1.40;93.20
36442;DHT22;64346;50.820;16.274;2023-02-08T14:53:45;1.20;93.70
36442;DHT22;64346;50.820;16.274;2023-02-08T14:59:11;1.20;93.80
36442;DHT22;64346;50.820;16.274;2023-02-08T15:01:45;1.20;93.80
36442;DHT22;64346;50.820;16.274;2023-02-08T15:04:14;1.10;93.70
36442;DHT22;64346;50.820;16.274;2023-02-08T15:09:26;1.00;94.00
36442;DHT22;64346;50.820;16.274;2023-02-08T15:12:29;1.00;94.10
36442;DHT22;64346;50.820;16.274;2023-02-08T15:15:05;1.00;94.30
36442;DHT22;64346;50.820;16.274;2023-02-08T15:17:37;0.90;94.60
36442;DHT22;64346;50.820;16.274;2023-02-08T15:20:15;0.90;95.00
36442;DHT22;64346;50.820;16.274;2023-02-08T15:22:45;0.80;95.20
36442;DHT22;64346;50.820;16.274;2023-02-08T15:25:29;0.80;95.40
36442;DHT22;64346;50.820;16.274;2023-02-08T15:28:22;0.90;95.60
36442;DHT22;64346;50.820;16.274;2023-02-08T15:31:05;0.80;95.70
36442;DHT22;64346;50.820;16.274;2023-02-08T15:33:40;0.80;95.90
36442;DHT22;64346;50.820;16.274;2023-02-08T15:36:21;0.80;95.90
36442;DHT22;64346;50.820;16.274;2023-02-08T15:38:50;0.80;95.90
36442;DHT22;64346;50.820;16.274;2023-02-08T15:41:32;0.60;95.90
36442;DHT22;64346;50.820;16.274;2023-02-08T15:44:21;0.60;96.10
36442;DHT22;64346;50.820;16.274;2023-02-08T15:46:54;0.60;96.40
36442;DHT22;64346;50.820;16.274;2023-02-08T15:49:43;0.50;96.50
36442;DHT22;64346;50.820;16.274;2023-02-08T15:52:16;0.50;96.50
36442;DHT22;64346;50.820;16.274;2023-02-08T15:54:46;0.50;96.60
36442;DHT22;64346;50.820;16.274;2023-02-08T16:00:04;0.50;96.40
36442;DHT22;64346;50.820;16.274;2023-02-08T16:02:36;0.40;96.60
36442;DHT22;64346;50.820;16.274;2023-02-08T16:05:16;0.30;96.90
36442;DHT22;64346;50.820;16.274;2023-02-08T16:07:46;0.30;97.00
36442;DHT22;64346;50.820;16.274;2023-02-08T16:10:27;0.20;97.10
36442;DHT22;64346;50.820;16.274;2023-02-08T16:12:57;0.30;97.10
36442;DHT22;64346;50.820;16.274;2023-02-08T16:15:45;0.20;97.30
36442;DHT22;64346;50.820;16.274;2023-02-08T16:23:59;0.00;98.20
36442;DHT22;64346;50.820;16.274;2023-02-08T16:26:31;0.00;98.40
36442;DHT22;64346;50.820;16.274;2023-02-08T16:29:04;-0.10;98.50
36442;DHT22;64346;50.820;16.274;2023-02-08T16:31:33;-0.10;98.90
36442;DHT22;64346;50.820;16.274;2023-02-08T16:34:04;-0.20;99.10
36442;DHT22;64346;50.820;16.274;2023-02-08T16:36:51;-0.20;99.40
36442;DHT22;64346;50.820;16.274;2023-02-08T16:40:08;-0.20;99.70
36442;DHT22;64346;50.820;16.274;2023-02-08T16:47:41;-0.20;99.90
36442;DHT22;64346;50.820;16.274;2023-02-08T16:50:14;-0.20;99.90
36442;DHT22;64346;50.820;16.274;2023-02-08T16:52:44;-0.20;99.90
36442;DHT22;64346;50.820;16.274;2023-02-08T16:55:19;-0.20;99.90
36442;DHT22;64346;50.820;16.274;2023-02-08T16:57:52;-0.30;99.90
36442;DHT22;64346;50.820;16.274;2023-02-08T17:00:26;-0.30;99.90
36442;DHT22;64346;50.820;16.274;2023-02-08T17:02:55;-0.30;99.90
36442;DHT22;64346;50.820;16.274;2023-02-08T17:05:29;-0.30;99.90
36442;DHT22;64346;50.820;16.274;2023-02-08T17:07:59;-0.30;99.90
36442;DHT22;64346;50.820;16.274;2023-02-08T17:10:29;-0.30;99.90
36442;DHT22;64346;50.820;16.274;2023-02-08T17:13:00;-0.20;99.90
36442;DHT22;64346;50.820;16.274;2023-02-08T17:15:46;-0.20;99.90
36442;DHT22;64346;50.820;16.274;2023-02-08T17:18:14;-0.30;99.90
36442;DHT22;64346;50.820;16.274;2023-02-08T17:20:42;-0.30;99.90
36442;DHT22;64346;50.820;16.274;2023-02-08T17:23:10;-0.30;99.90
36442;DHT22;64346;50.820;16.274;2023-02-08T17:25:38;-0.30;99.90
36442;DHT22;64346;50.820;16.274;2023-02-08T17:28:09;-0.40;99.90
36442;DHT22;64346;50.820;16.274;2023-02-08T17:30:40;-0.60;99.90
36442;DHT22;64346;50.820;16.274;2023-02-08T17:33:10;-0.80;99.90
36442;DHT22;64346;50.820;16.274;2023-02-08T17:35:38;-0.90;99.90
36442;DHT22;64346;50.820;16.274;2023-02-08T17:38:11;-0.90;99.90
36442;DHT22;64346;50.820;16.274;2023-02-08T17:40:41;-1.00;99.90
36442;DHT22;64346;50.820;16.274;2023-02-08T17:43:10;-1.10;99.90
36442;DHT22;64346;50.820;16.274;2023-02-08T17:45:42;-1.10;99.90
36442;DHT22;64346;50.820;16.274;2023-02-08T17:48:10;-1.10;99.90
36442;DHT22;64346;50.820;16.274;2023-02-08T17:50:40;-1.10;99.90
36442;DHT22;64346;50.820;16.274;2023-02-08T17:53:10;-1.10;99.90
36442;DHT22;64346;50.820;16.274;2023-02-08T17:55:40;-1.20;99.90
36442;DHT22;64346;50.820;16.274;2023-02-08T17:58:10;-1.20;99.90
36442;DHT22;64346;50.820;16.274;2023-02-08T18:00:40;-1.10;99.90
36442;DHT22;64346;50.820;16.274;2023-02-08T18:03:07;-1.10;99.90
36442;DHT22;64346;50.820;16.274;2023-02-08T18:05:34;-1.10;99.90
36442;DHT22;64346;50.820;16.274;2023-02-08T18:08:04;-1.10;99.90
36442;DHT22;64346;50.820;16.274;2023-02-08T18:10:31;-1.10;99.90
36442;DHT22;64346;50.820;16.274;2023-02-08T18:13:02;-1.10;99.90
36442;DHT22;64346;50.820;16.274;2023-02-08T18:15:32;-1.10;99.90
36442;DHT22;64346;50.820;16.274;2023-02-08T18:17:59;-1.10;99.90
36442;DHT22;64346;50.820;16.274;2023-02-08T18:20:27;-1.20;99.90
36442;DHT22;64346;50.820;16.274;2023-02-08T18:22:56;-1.20;99.90
36442;DHT22;64346;50.820;16.274;2023-02-08T18:25:24;-1.20;99.90
36442;DHT22;64346;50.820;16.274;2023-02-08T18:27:51;-1.20;99.90
36442;DHT22;64346;50.820;16.274;2023-02-08T18:30:21;-1.30;99.90
36442;DHT22;64346;50.820;16.274;2023-02-08T18:32:48;-1.30;99.90
36442;DHT22;64346;50.820;16.274;2023-02-08T18:35:15;-1.20;99.90
36442;DHT22;64346;50.820;16.274;2023-02-08T18:37:43;-1.30;99.90
36442;DHT22;64346;50.820;16.274;2023-02-08T18:40:10;-1.30;99.90
36442;DHT22;64346;50.820;16.274;2023-02-08T18:42:37;-1.30;99.90
36442;DHT22;64346;50.820;16.274;2023-02-08T18:45:05;-1.30;99.90
36442;DHT22;64346;50.820;16.274;2023-02-08T18:47:36;-1.30;99.90
36442;DHT22;64346;50.820;16.274;2023-02-08T18:50:08;-1.50;99.90
36442;DHT22;64346;50.820;16.274;2023-02-08T18:52:37;-1.50;99.90
36442;DHT22;64346;50.820;16.274;2023-02-08T18:55:05;-1.50;99.90
36442;DHT22;64346;50.820;16.274;2023-02-08T18:57:32;-1.60;99.90
36442;DHT22;64346;50.820;16.274;2023-02-08T19:00:02;-1.60;99.90
36442;DHT22;64346;50.820;16.274;2023-02-08T19:02:32;-1.70;99.90
36442;DHT22;64346;50.820;16.274;2023-02-08T19:04:59;-1.80;99.90
36442;DHT22;64346;50.820;16.274;2023-02-08T19:07:29;-1.80;99.90
36442;DHT22;64346;50.820;16.274;2023-02-08T19:09:58;-1.80;99.90
36442;DHT22;64346;50.820;16.274;2023-02-08T19:12:26;-1.80;99.90
36442;DHT22;64346;50.820;16.274;2023-02-08T19:14:54;-1.80;99.90
36442;DHT22;64346;50.820;16.274;2023-02-08T19:17:21;-1.90;99.90
36442;DHT22;64346;50.820;16.274;2023-02-08T19:19:48;-1.90;99.90
36442;DHT22;64346;50.820;16.274;2023-02-08T19:22:18;-1.90;99.90